sensor_id;sensor_type;location;lat;lon;timestamp;pressure;altitude;pressure_sealevel;temperature;humidity
14383;BME280;7275;50.328;8.720;2023-06-19T00:02:18;99201.16;;;27.55;39.14
14383;BME280;7275;50.328;8.720;2023-06-19T00:04:46;99191.34;;;27.46;39.36
14383;BME280;7275;50.328;8.720;2023-06-19T00:07:13;99180.16;;;27.41;39.29
14383;BME280;7275;50.328;8.720;2023-06-19T00:09:41;99183.06;;;27.40;39.22
14383;BME280;7275;50.328;8.720;2023-06-19T00:12:10;99173.25;;;27.39;39.45
14383;BME280;7275;50.328;8.720;2023-06-19T00:14:37;99166.75;;;27.40;39.24
14383;BME280;7275;50.328;8.720;2023-06-19T00:17:06;99161.81;;;27.43;39.20
14383;BME280;7275;50.328;8.720;2023-06-19T00:19:33;99156.03;;;27.46;39.14
14383;BME280;7275;50.328;8.720;2023-06-19T00:22:03;99149.75;;;27.46;39.29
14383;BME280;7275;50.328;8.720;2023-06-19T00:24:30;99150.81;;;27.45;39.06
14383;BME280;7275;50.328;8.720;2023-06-19T00:26:58;99137.38;;;27.43;39.14
14383;BME280;7275;50.328;8.720;2023-06-19T00:29:30;99133.00;;;27.42;39.36
14383;BME280;7275;50.328;8.720;2023-06-19T00:31:58;99130.94;;;27.44;39.08
14383;BME280;7275;50.328;8.720;2023-06-19T00:34:28;99135.53;;;27.44;39.57
14383;BME280;7275;50.328;8.720;2023-06-19T00:36:56;99138.22;;;27.44;39.39
14383;BME280;7275;50.328;8.720;2023-06-19T00:39:24;99130.28;;;27.42;39.30
14383;BME280;7275;50.328;8.720;2023-06-19T00:41:54;99137.56;;;27.42;39.33
14383;BME280;7275;50.328;8.720;2023-06-19T00:44:22;99140.28;;;27.42;39.41
14383;BME280;7275;50.328;8.720;2023-06-19T00:46:55;99146.25;;;27.37;39.72
14383;BME280;7275;50.328;8.720;2023-06-19T00:49:27;99137.56;;;27.34;39.58
14383;BME280;7275;50.328;8.720;2023-06-19T00:51:55;99146.06;;;27.31;39.26
14383;BME280;7275;50.328;8.720;2023-06-19T00:54:23;99143.03;;;27.26;39.62
14383;BME280;7275;50.328;8.720;2023-06-19T00:56:51;99144.63;;;27.20;39.62
14383;BME280;7275;50.328;8.720;2023-06-19T00:59:20;99141.56;;;27.15;39.33
14383;BME280;7275;50.328;8.720;2023-06-19T01:01:48;99137.84;;;27.08;39.45
14383;BME280;7275;50.328;8.720;2023-06-19T01:04:17;99137.88;;;27.00;39.95
14383;BME280;7275;50.328;8.720;2023-06-19T01:06:51;99135.69;;;26.96;40.09
14383;BME280;7275;50.328;8.720;2023-06-19T01:09:28;99136.38;;;26.89;39.95
14383;BME280;7275;50.328;8.720;2023-06-19T01:12:02;99141.50;;;26.84;40.05
14383;BME280;7275;50.328;8.720;2023-06-19T01:14:38;99137.78;;;26.77;40.00
14383;BME280;7275;50.328;8.720;2023-06-19T01:17:06;99135.91;;;26.70;40.01
14383;BME280;7275;50.328;8.720;2023-06-19T01:19:36;99135.41;;;26.66;39.76
14383;BME280;7275;50.328;8.720;2023-06-19T01:22:05;99135.22;;;26.60;39.72
14383;BME280;7275;50.328;8.720;2023-06-19T01:24:33;99134.06;;;26.54;39.72
14383;BME280;7275;50.328;8.720;2023-06-19T01:27:01;99127.28;;;26.50;39.53
14383;BME280;7275;50.328;8.720;2023-06-19T01:29:29;99122.38;;;26.46;39.57
14383;BME280;7275;50.328;8.720;2023-06-19T01:32:01;99121.03;;;26.42;39.81
14383;BME280;7275;50.328;8.720;2023-06-19T01:34:30;99117.16;;;26.36;39.55
14383;BME280;7275;50.328;8.720;2023-06-19T01:36:58;99118.34;;;26.34;39.61
14383;BME280;7275;50.328;8.720;2023-06-19T01:39:28;99118.84;;;26.29;39.58
14383;BME280;7275;50.328;8.720;2023-06-19T01:41:56;99123.94;;;26.24;39.53
14383;BME280;7275;50.328;8.720;2023-06-19T01:44:24;99112.28;;;26.16;39.34
14383;BME280;7275;50.328;8.720;2023-06-19T01:46:52;99115.31;;;26.12;39.51
14383;BME280;7275;50.328;8.720;2023-06-19T01:49:20;99113.94;;;26.08;39.45
14383;BME280;7275;50.328;8.720;2023-06-19T01:51:47;99118.84;;;26.05;39.54
14383;BME280;7275;50.328;8.720;2023-06-19T01:54:16;99108.69;;;25.99;39.55
14383;BME280;7275;50.328;8.720;2023-06-19T01:56:45;99115.44;;;25.95;39.66
14383;BME280;7275;50.328;8.720;2023-06-19T01:59:13;99126.44;;;25.93;39.70
14383;BME280;7275;50.328;8.720;2023-06-19T02:01:41;99123.41;;;25.96;39.80
14383;BME280;7275;50.328;8.720;2023-06-19T02:04:08;99112.22;;;25.99;39.73
14383;BME280;7275;50.328;8.720;2023-06-19T02:06:36;99112.56;;;26.04;39.84
14383;BME280;7275;50.328;8.720;2023-06-19T02:09:04;99116.13;;;26.05;39.63
14383;BME280;7275;50.328;8.720;2023-06-19T02:11:31;99123.94;;;26.08;39.38
14383;BME280;7275;50.328;8.720;2023-06-19T02:14:00;99123.94;;;26.08;39.66
14383;BME280;7275;50.328;8.720;2023-06-19T02:16:28;99134.63;;;26.09;39.50
14383;BME280;7275;50.328;8.720;2023-06-19T02:18:56;99131.75;;;26.11;39.22
14383;BME280;7275;50.328;8.720;2023-06-19T02:21:24;99127.66;;;26.15;38.94
14383;BME280;7275;50.328;8.720;2023-06-19T02:23:52;99120.72;;;26.21;39.07
14383;BME280;7275;50.328;8.720;2023-06-19T02:26:19;99131.72;;;26.27;39.01
14383;BME280;7275;50.328;8.720;2023-06-19T02:28:47;99135.28;;;26.28;38.84
14383;BME280;7275;50.328;8.720;2023-06-19T02:31:16;99140.88;;;26.26;38.86
14383;BME280;7275;50.328;8.720;2023-06-19T02:33:44;99129.00;;;26.27;38.62
14383;BME280;7275;50.328;8.720;2023-06-19T02:36:11;99146.13;;;26.28;38.70
14383;BME280;7275;50.328;8.720;2023-06-19T02:38:39;99144.41;;;26.27;38.68
14383;BME280;7275;50.328;8.720;2023-06-19T02:41:09;99140.03;;;26.26;38.76
14383;BME280;7275;50.328;8.720;2023-06-19T02:43:36;99139.00;;;26.27;38.62
14383;BME280;7275;50.328;8.720;2023-06-19T02:46:04;99131.91;;;26.26;38.73
14383;BME280;7275;50.328;8.720;2023-06-19T02:48:33;99135.63;;;26.25;38.88
14383;BME280;7275;50.328;8.720;2023-06-19T02:51:00;99141.72;;;26.27;38.96
14383;BME280;7275;50.328;8.720;2023-06-19T02:53:28;99154.75;;;26.31;38.88
14383;BME280;7275;50.328;8.720;2023-06-19T02:55:55;99150.53;;;26.37;38.79
14383;BME280;7275;50.328;8.720;2023-06-19T02:58:23;99157.47;;;26.39;38.26
14383;BME280;7275;50.328;8.720;2023-06-19T03:00:51;99154.75;;;26.39;37.95
14383;BME280;7275;50.328;8.720;2023-06-19T03:03:19;99168.50;;;26.38;37.90
14383;BME280;7275;50.328;8.720;2023-06-19T03:05:48;99176.28;;;26.33;38.28
14383;BME280;7275;50.328;8.720;2023-06-19T03:08:15;99175.09;;;26.27;38.30
14383;BME280;7275;50.328;8.720;2023-06-19T03:10:43;99172.06;;;26.22;38.54
14383;BME280;7275;50.328;8.720;2023-06-19T03:13:12;99170.53;;;26.20;38.64
14383;BME280;7275;50.328;8.720;2023-06-19T03:15:39;99163.41;;;26.19;38.66
14383;BME280;7275;50.328;8.720;2023-06-19T03:18:07;99166.78;;;26.21;38.74
14383;BME280;7275;50.328;8.720;2023-06-19T03:20:37;99171.38;;;26.28;38.84
14383;BME280;7275;50.328;8.720;2023-06-19T03:23:05;99178.47;;;26.37;38.98
14383;BME280;7275;50.328;8.720;2023-06-19T03:25:33;99178.47;;;26.45;38.67
14383;BME280;7275;50.328;8.720;2023-06-19T03:28:02;99189.66;;;26.50;39.03
14383;BME280;7275;50.328;8.720;2023-06-19T03:30:29;99188.97;;;26.56;38.91
14383;BME280;7275;50.328;8.720;2023-06-19T03:32:57;99182.56;;;26.57;39.25
14383;BME280;7275;50.328;8.720;2023-06-19T03:35:24;99177.28;;;26.56;39.21
14383;BME280;7275;50.328;8.720;2023-06-19T03:37:52;99176.97;;;26.51;39.71
14383;BME280;7275;50.328;8.720;2023-06-19T03:40:21;99184.56;;;26.47;39.70
14383;BME280;7275;50.328;8.720;2023-06-19T03:42:49;99198.13;;;26.47;39.88
14383;BME280;7275;50.328;8.720;2023-06-19T03:45:16;99203.41;;;26.49;40.01
14383;BME280;7275;50.328;8.720;2023-06-19T03:47:44;99196.63;;;26.53;39.97
14383;BME280;7275;50.328;8.720;2023-06-19T03:50:12;99196.09;;;26.57;40.33
14383;BME280;7275;50.328;8.720;2023-06-19T03:52:56;99205.91;;;26.58;40.28
14383;BME280;7275;50.328;8.720;2023-06-19T03:55:25;99208.63;;;26.58;40.20
14383;BME280;7275;50.328;8.720;2023-06-19T03:57:53;99214.91;;;26.59;40.28
14383;BME280;7275;50.328;8.720;2023-06-19T04:00:20;99217.63;;;26.59;40.14
14383;BME280;7275;50.328;8.720;2023-06-19T04:02:49;99207.28;;;26.62;40.46
14383;BME280;7275;50.328;8.720;2023-06-19T04:05:17;99205.22;;;26.64;40.79
14383;BME280;7275;50.328;8.720;2023-06-19T04:07:45;99216.44;;;26.69;40.87
14383;BME280;7275;50.328;8.720;2023-06-19T04:10:13;99212.38;;;26.73;40.75
14383;BME280;7275;50.328;8.720;2023-06-19T04:12:42;99226.81;;;26.74;40.62
14383;BME280;7275;50.328;8.720;2023-06-19T04:15:11;99235.78;;;26.74;40.39
14383;BME280;7275;50.328;8.720;2023-06-19T04:17:39;99238.34;;;26.76;40.67
14383;BME280;7275;50.328;8.720;2023-06-19T04:20:07;99243.41;;;26.79;40.50
14383;BME280;7275;50.328;8.720;2023-06-19T04:22:38;99245.09;;;26.80;40.58
14383;BME280;7275;50.328;8.720;2023-06-19T04:25:07;99242.22;;;26.81;40.91
14383;BME280;7275;50.328;8.720;2023-06-19T04:27:35;99249.16;;;26.84;40.84
14383;BME280;7275;50.328;8.720;2023-06-19T04:30:05;99250.84;;;26.85;41.20
14383;BME280;7275;50.328;8.720;2023-06-19T04:32:33;99257.97;;;26.86;41.03
14383;BME280;7275;50.328;8.720;2023-06-19T04:35:02;99266.13;;;26.86;41.26
14383;BME280;7275;50.328;8.720;2023-06-19T04:37:31;99264.59;;;26.83;40.91
14383;BME280;7275;50.328;8.720;2023-06-19T04:39:58;99264.59;;;26.83;41.05
14383;BME280;7275;50.328;8.720;2023-06-19T04:42:26;99271.72;;;26.84;40.98
14383;BME280;7275;50.328;8.720;2023-06-19T04:44:54;99269.69;;;26.86;41.31
14383;BME280;7275;50.328;8.720;2023-06-19T04:47:23;99284.59;;;26.90;41.22
14383;BME280;7275;50.328;8.720;2023-06-19T04:50:02;99283.44;;;26.93;41.38
14383;BME280;7275;50.328;8.720;2023-06-19T04:52:29;99292.91;;;26.97;41.25
14383;BME280;7275;50.328;8.720;2023-06-19T04:54:59;99301.06;;;26.97;41.31
14383;BME280;7275;50.328;8.720;2023-06-19T04:57:26;99299.16;;;26.98;40.63
14383;BME280;7275;50.328;8.720;2023-06-19T04:59:54;99299.53;;;26.95;40.38
14383;BME280;7275;50.328;8.720;2023-06-19T05:02:22;99298.84;;;26.92;40.43
14383;BME280;7275;50.328;8.720;2023-06-19T05:04:51;99299.03;;;26.91;40.64
14383;BME280;7275;50.328;8.720;2023-06-19T05:07:19;99294.44;;;26.91;40.59
14383;BME280;7275;50.328;8.720;2023-06-19T05:09:46;99303.25;;;26.93;40.75
14383;BME280;7275;50.328;8.720;2023-06-19T05:12:14;99291.22;;;26.96;40.63
14383;BME280;7275;50.328;8.720;2023-06-19T05:14:41;99299.84;;;27.00;40.63
14383;BME280;7275;50.328;8.720;2023-06-19T05:17:09;99309.34;;;27.04;40.58
14383;BME280;7275;50.328;8.720;2023-06-19T05:19:36;99304.25;;;27.09;40.90
14383;BME280;7275;50.328;8.720;2023-06-19T05:22:06;99316.97;;;27.16;40.52
14383;BME280;7275;50.328;8.720;2023-06-19T05:24:33;99302.72;;;27.22;40.77
14383;BME280;7275;50.328;8.720;2023-06-19T05:27:01;99310.84;;;27.30;40.73
14383;BME280;7275;50.328;8.720;2023-06-19T05:29:29;99307.97;;;27.40;40.54
14383;BME280;7275;50.328;8.720;2023-06-19T05:31:58;99308.78;;;27.48;41.07
14383;BME280;7275;50.328;8.720;2023-06-19T05:34:25;99315.25;;;27.55;40.88
14383;BME280;7275;50.328;8.720;2023-06-19T05:36:53;99309.78;;;27.63;40.77
14383;BME280;7275;50.328;8.720;2023-06-19T05:39:22;99315.38;;;27.70;41.09
14383;BME280;7275;50.328;8.720;2023-06-19T05:41:49;99319.06;;;27.77;41.10
14383;BME280;7275;50.328;8.720;2023-06-19T05:44:17;99324.44;;;27.85;40.85
14383;BME280;7275;50.328;8.720;2023-06-19T05:46:45;99315.44;;;27.93;40.81
14383;BME280;7275;50.328;8.720;2023-06-19T05:49:12;99308.94;;;28.02;41.06
14383;BME280;7275;50.328;8.720;2023-06-19T05:51:40;99310.44;;;28.12;41.18
14383;BME280;7275;50.328;8.720;2023-06-19T05:54:08;99315.47;;;28.23;41.17
14383;BME280;7275;50.328;8.720;2023-06-19T05:56:37;99319.66;;;28.34;41.09
14383;BME280;7275;50.328;8.720;2023-06-19T05:59:05;99326.56;;;28.44;41.14
14383;BME280;7275;50.328;8.720;2023-06-19T06:01:32;99323.59;;;28.54;40.94
14383;BME280;7275;50.328;8.720;2023-06-19T06:04:00;99328.19;;;28.62;40.49
14383;BME280;7275;50.328;8.720;2023-06-19T06:06:29;99331.88;;;28.69;40.91
14383;BME280;7275;50.328;8.720;2023-06-19T06:08:57;99327.88;;;28.79;41.12
14383;BME280;7275;50.328;8.720;2023-06-19T06:11:25;99342.47;;;28.86;40.81
14383;BME280;7275;50.328;8.720;2023-06-19T06:13:54;99343.97;;;28.89;40.76
14383;BME280;7275;50.328;8.720;2023-06-19T06:16:24;99337.31;;;28.91;40.70
14383;BME280;7275;50.328;8.720;2023-06-19T06:18:52;99345.09;;;28.94;40.29
14383;BME280;7275;50.328;8.720;2023-06-19T06:21:20;99350.38;;;28.96;40.31
14383;BME280;7275;50.328;8.720;2023-06-19T06:23:47;99352.72;;;28.99;40.78
14383;BME280;7275;50.328;8.720;2023-06-19T06:26:18;99362.03;;;29.04;40.71
14383;BME280;7275;50.328;8.720;2023-06-19T06:28:46;99362.81;;;29.13;40.36
14383;BME280;7275;50.328;8.720;2023-06-19T06:31:15;99362.41;;;29.24;40.88
14383;BME280;7275;50.328;8.720;2023-06-19T06:33:43;99361.78;;;29.37;40.11
14383;BME280;7275;50.328;8.720;2023-06-19T06:36:18;99362.19;;;29.48;40.31
14383;BME280;7275;50.328;8.720;2023-06-19T06:39:12;99360.88;;;29.59;40.21
14383;BME280;7275;50.328;8.720;2023-06-19T06:41:40;99362.63;;;29.74;39.79
14383;BME280;7275;50.328;8.720;2023-06-19T06:44:07;99364.97;;;29.92;39.47
14383;BME280;7275;50.328;8.720;2023-06-19T06:46:36;99366.09;;;30.12;38.89
14383;BME280;7275;50.328;8.720;2023-06-19T06:49:04;99367.94;;;30.26;38.79
14383;BME280;7275;50.328;8.720;2023-06-19T06:51:31;99361.66;;;30.40;38.14
14383;BME280;7275;50.328;8.720;2023-06-19T06:53:59;99358.44;;;30.51;37.99
14383;BME280;7275;50.328;8.720;2023-06-19T06:56:26;99363.34;;;30.62;37.76
14383;BME280;7275;50.328;8.720;2023-06-19T06:58:54;99358.25;;;30.74;37.68
14383;BME280;7275;50.328;8.720;2023-06-19T07:01:21;99359.34;;;30.79;37.43
14383;BME280;7275;50.328;8.720;2023-06-19T07:03:50;99364.22;;;30.84;37.45
14383;BME280;7275;50.328;8.720;2023-06-19T07:06:20;99371.03;;;30.88;36.99
14383;BME280;7275;50.328;8.720;2023-06-19T07:08:48;99364.78;;;30.94;36.93
14383;BME280;7275;50.328;8.720;2023-06-19T07:11:16;99365.97;;;31.06;36.66
14383;BME280;7275;50.328;8.720;2023-06-19T07:13:43;99367.31;;;31.17;36.54
14383;BME280;7275;50.328;8.720;2023-06-19T07:16:11;99368.00;;;31.25;36.15
14383;BME280;7275;50.328;8.720;2023-06-19T07:18:38;99368.97;;;31.39;36.33
14383;BME280;7275;50.328;8.720;2023-06-19T07:21:11;99363.25;;;31.55;36.35
14383;BME280;7275;50.328;8.720;2023-06-19T07:23:40;99374.13;;;31.76;36.20
14383;BME280;7275;50.328;8.720;2023-06-19T07:26:09;99379.25;;;31.92;35.70
14383;BME280;7275;50.328;8.720;2023-06-19T07:28:36;99367.78;;;32.03;35.67
14383;BME280;7275;50.328;8.720;2023-06-19T07:31:04;99378.19;;;32.14;35.65
14383;BME280;7275;50.328;8.720;2023-06-19T07:33:31;99378.84;;;32.23;35.12
14383;BME280;7275;50.328;8.720;2023-06-19T07:35:59;99364.09;;;32.24;35.10
14383;BME280;7275;50.328;8.720;2023-06-19T07:38:30;99362.84;;;32.26;35.12
14383;BME280;7275;50.328;8.720;2023-06-19T07:40:57;99363.72;;;32.27;35.06
14383;BME280;7275;50.328;8.720;2023-06-19T07:43:25;99368.97;;;32.28;34.86
14383;BME280;7275;50.328;8.720;2023-06-19T07:45:53;99378.47;;;32.33;34.95
14383;BME280;7275;50.328;8.720;2023-06-19T07:48:21;99383.53;;;32.36;34.88
14383;BME280;7275;50.328;8.720;2023-06-19T07:50:53;99378.50;;;32.39;34.76
14383;BME280;7275;50.328;8.720;2023-06-19T07:53:20;99385.88;;;32.45;35.02
14383;BME280;7275;50.328;8.720;2023-06-19T07:55:49;99382.59;;;32.56;34.76
14383;BME280;7275;50.328;8.720;2023-06-19T07:58:17;99387.28;;;32.69;34.62
14383;BME280;7275;50.328;8.720;2023-06-19T08:00:44;99384.97;;;32.79;34.67
14383;BME280;7275;50.328;8.720;2023-06-19T08:03:12;99386.91;;;32.91;35.03
14383;BME280;7275;50.328;8.720;2023-06-19T08:05:40;99378.09;;;33.02;34.52
14383;BME280;7275;50.328;8.720;2023-06-19T08:08:07;99390.13;;;33.08;34.61
14383;BME280;7275;50.328;8.720;2023-06-19T08:10:35;99395.63;;;33.15;34.00
14383;BME280;7275;50.328;8.720;2023-06-19T08:13:04;99396.88;;;33.19;34.49
14383;BME280;7275;50.328;8.720;2023-06-19T08:15:31;99401.53;;;33.25;34.07
14383;BME280;7275;50.328;8.720;2023-06-19T08:17:59;99397.53;;;33.27;34.04
14383;BME280;7275;50.328;8.720;2023-06-19T08:20:26;99407.22;;;33.30;34.29
14383;BME280;7275;50.328;8.720;2023-06-19T08:22:54;99401.53;;;33.31;33.87
14383;BME280;7275;50.328;8.720;2023-06-19T08:25:23;99407.84;;;33.32;33.75
14383;BME280;7275;50.328;8.720;2023-06-19T08:27:50;99408.06;;;33.37;34.07
14383;BME280;7275;50.328;8.720;2023-06-19T08:30:19;99411.44;;;33.45;34.23
14383;BME280;7275;50.328;8.720;2023-06-19T08:32:47;99417.38;;;33.62;34.19
14383;BME280;7275;50.328;8.720;2023-06-19T08:35:15;99405.56;;;33.74;33.83
14383;BME280;7275;50.328;8.720;2023-06-19T08:37:43;99407.44;;;33.87;33.81
14383;BME280;7275;50.328;8.720;2023-06-19T08:40:12;99409.53;;;33.98;33.28
14383;BME280;7275;50.328;8.720;2023-06-19T08:42:39;99402.59;;;34.09;33.12
14383;BME280;7275;50.328;8.720;2023-06-19T08:45:09;99407.81;;;34.23;33.51
14383;BME280;7275;50.328;8.720;2023-06-19T08:47:38;99399.75;;;34.35;33.14
14383;BME280;7275;50.328;8.720;2023-06-19T08:50:07;99402.03;;;34.44;32.97
14383;BME280;7275;50.328;8.720;2023-06-19T08:52:34;99402.22;;;34.56;32.99
14383;BME280;7275;50.328;8.720;2023-06-19T08:55:02;99403.22;;;34.68;32.69
14383;BME280;7275;50.328;8.720;2023-06-19T08:57:34;99407.19;;;34.79;32.60
14383;BME280;7275;50.328;8.720;2023-06-19T09:00:03;99421.78;;;34.79;32.60
14383;BME280;7275;50.328;8.720;2023-06-19T09:02:44;99416.53;;;34.71;32.23
14383;BME280;7275;50.328;8.720;2023-06-19T09:05:30;99419.31;;;34.65;32.28
14383;BME280;7275;50.328;8.720;2023-06-19T09:07:59;99423.13;;;34.57;32.82
14383;BME280;7275;50.328;8.720;2023-06-19T09:10:27;99422.09;;;34.45;32.76
14383;BME280;7275;50.328;8.720;2023-06-19T09:12:59;99427.19;;;34.35;32.38
14383;BME280;7275;50.328;8.720;2023-06-19T09:15:29;99425.56;;;34.27;32.58
14383;BME280;7275;50.328;8.720;2023-06-19T09:18:02;99420.06;;;34.27;32.67
14383;BME280;7275;50.328;8.720;2023-06-19T09:20:30;99423.84;;;34.26;32.95
14383;BME280;7275;50.328;8.720;2023-06-19T09:22:59;99411.59;;;34.29;33.02
14383;BME280;7275;50.328;8.720;2023-06-19T09:25:26;99418.31;;;34.39;32.78
14383;BME280;7275;50.328;8.720;2023-06-19T09:27:54;99423.97;;;34.44;32.71
14383;BME280;7275;50.328;8.720;2023-06-19T09:30:22;99428.84;;;34.42;32.55
14383;BME280;7275;50.328;8.720;2023-06-19T09:32:50;99423.81;;;34.39;32.63
14383;BME280;7275;50.328;8.720;2023-06-19T09:35:19;99420.44;;;34.37;32.95
14383;BME280;7275;50.328;8.720;2023-06-19T09:37:48;99423.59;;;34.34;33.05
14383;BME280;7275;50.328;8.720;2023-06-19T09:40:17;99412.44;;;34.29;32.56
14383;BME280;7275;50.328;8.720;2023-06-19T09:42:47;99422.97;;;34.32;32.89
14383;BME280;7275;50.328;8.720;2023-06-19T09:45:17;99419.81;;;34.35;32.58
14383;BME280;7275;50.328;8.720;2023-06-19T09:47:52;99424.03;;;34.38;32.78
14383;BME280;7275;50.328;8.720;2023-06-19T09:50:23;99415.19;;;34.36;32.46
14383;BME280;7275;50.328;8.720;2023-06-19T09:52:54;99424.88;;;34.32;32.58
14383;BME280;7275;50.328;8.720;2023-06-19T09:55:24;99425.56;;;34.27;32.67
14383;BME280;7275;50.328;8.720;2023-06-19T09:57:55;99423.84;;;34.26;32.62
14383;BME280;7275;50.328;8.720;2023-06-19T10:00:23;99427.66;;;34.25;33.19
14383;BME280;7275;50.328;8.720;2023-06-19T10:02:57;99419.38;;;34.32;32.89
14383;BME280;7275;50.328;8.720;2023-06-19T10:05:32;99420.41;;;34.44;33.04
14383;BME280;7275;50.328;8.720;2023-06-19T10:07:59;99426.13;;;34.49;32.80
14383;BME280;7275;50.328;8.720;2023-06-19T10:10:28;99420.44;;;34.50;32.92
14383;BME280;7275;50.328;8.720;2023-06-19T10:13:11;99414.09;;;34.50;32.69
14383;BME280;7275;50.328;8.720;2023-06-19T10:15:40;99417.88;;;34.49;32.76
14383;BME280;7275;50.328;8.720;2023-06-19T10:18:13;99417.00;;;34.48;33.14
14383;BME280;7275;50.328;8.720;2023-06-19T10:20:44;99418.31;;;34.46;33.09
14383;BME280;7275;50.328;8.720;2023-06-19T10:23:15;99426.78;;;34.38;32.67
14383;BME280;7275;50.328;8.720;2023-06-19T10:25:47;99423.44;;;34.23;32.95
14383;BME280;7275;50.328;8.720;2023-06-19T10:28:18;99425.16;;;34.11;32.59
14383;BME280;7275;50.328;8.720;2023-06-19T10:30:52;99423.47;;;34.03;32.59
14383;BME280;7275;50.328;8.720;2023-06-19T10:33:23;99425.38;;;34.03;33.11
14383;BME280;7275;50.328;8.720;2023-06-19T10:35:53;99424.56;;;34.02;33.28
14383;BME280;7275;50.328;8.720;2023-06-19T10:38:21;99424.75;;;34.01;33.33
14383;BME280;7275;50.328;8.720;2023-06-19T10:40:48;99423.94;;;34.00;32.77
14383;BME280;7275;50.328;8.720;2023-06-19T10:43:20;99422.00;;;34.01;33.36
14383;BME280;7275;50.328;8.720;2023-06-19T10:45:49;99418.44;;;34.07;33.21
14383;BME280;7275;50.328;8.720;2023-06-19T10:48:21;99420.50;;;34.11;33.32
14383;BME280;7275;50.328;8.720;2023-06-19T10:50:48;99421.13;;;34.13;33.21
14383;BME280;7275;50.328;8.720;2023-06-19T10:53:25;99406.75;;;34.18;32.89
14383;BME280;7275;50.328;8.720;2023-06-19T10:55:56;99411.63;;;34.22;33.25
14383;BME280;7275;50.328;8.720;2023-06-19T10:58:23;99412.25;;;34.24;33.01
14383;BME280;7275;50.328;8.720;2023-06-19T11:00:51;99418.97;;;34.28;33.16
14383;BME280;7275;50.328;8.720;2023-06-19T11:03:18;99402.72;;;34.33;33.18
14383;BME280;7275;50.328;8.720;2023-06-19T11:05:47;99402.03;;;34.44;32.75
14383;BME280;7275;50.328;8.720;2023-06-19T11:08:17;99396.97;;;34.54;32.89
14383;BME280;7275;50.328;8.720;2023-06-19T11:10:46;99387.81;;;34.67;32.51
14383;BME280;7275;50.328;8.720;2023-06-19T11:13:16;99400.66;;;34.80;32.26
14383;BME280;7275;50.328;8.720;2023-06-19T11:15:44;99388.53;;;34.87;32.85
14383;BME280;7275;50.328;8.720;2023-06-19T11:18:15;99392.91;;;35.01;32.85
14383;BME280;7275;50.328;8.720;2023-06-19T11:20:44;99388.38;;;35.13;32.40
14383;BME280;7275;50.328;8.720;2023-06-19T11:23:12;99379.25;;;35.19;32.11
14383;BME280;7275;50.328;8.720;2023-06-19T11:25:41;99388.53;;;35.25;31.65
14383;BME280;7275;50.328;8.720;2023-06-19T11:28:14;99392.56;;;35.22;31.82
14383;BME280;7275;50.328;8.720;2023-06-19T11:30:45;99384.13;;;35.17;31.61
14383;BME280;7275;50.328;8.720;2023-06-19T11:33:18;99394.72;;;35.14;32.23
14383;BME280;7275;50.328;8.720;2023-06-19T11:35:49;99391.22;;;35.07;32.13
14383;BME280;7275;50.328;8.720;2023-06-19T11:38:18;99388.06;;;34.90;31.62
14383;BME280;7275;50.328;8.720;2023-06-19T11:40:46;99390.09;;;34.70;31.50
14383;BME280;7275;50.328;8.720;2023-06-19T11:43:24;99388.72;;;34.48;31.60
14383;BME280;7275;50.328;8.720;2023-06-19T11:45:53;99395.09;;;34.35;31.53
14383;BME280;7275;50.328;8.720;2023-06-19T11:48:24;99389.25;;;34.19;32.10
14383;BME280;7275;50.328;8.720;2023-06-19T11:50:52;99384.66;;;34.06;32.27
14383;BME280;7275;50.328;8.720;2023-06-19T11:53:20;99393.28;;;33.97;32.53
14383;BME280;7275;50.328;8.720;2023-06-19T11:55:49;99398.34;;;33.93;32.25
14383;BME280;7275;50.328;8.720;2023-06-19T11:58:16;99398.38;;;33.87;32.73
14383;BME280;7275;50.328;8.720;2023-06-19T12:00:48;99394.38;;;33.82;32.75
14383;BME280;7275;50.328;8.720;2023-06-19T12:03:16;99397.97;;;33.83;32.91
14383;BME280;7275;50.328;8.720;2023-06-19T12:05:44;99389.28;;;33.86;32.40
14383;BME280;7275;50.328;8.720;2023-06-19T12:08:12;99397.31;;;33.88;32.36
14383;BME280;7275;50.328;8.720;2023-06-19T12:10:39;99396.25;;;33.89;32.61
14383;BME280;7275;50.328;8.720;2023-06-19T12:13:07;99389.50;;;33.91;32.58
14383;BME280;7275;50.328;8.720;2023-06-19T12:15:35;99389.72;;;33.90;33.00
14383;BME280;7275;50.328;8.720;2023-06-19T12:18:04;99383.59;;;33.94;32.55
14383;BME280;7275;50.328;8.720;2023-06-19T12:20:33;99383.59;;;34.01;32.51
14383;BME280;7275;50.328;8.720;2023-06-19T12:23:02;99372.56;;;34.14;32.89
14383;BME280;7275;50.328;8.720;2023-06-19T12:25:30;99375.50;;;34.25;32.53
14383;BME280;7275;50.328;8.720;2023-06-19T12:27:57;99375.88;;;34.42;32.03
14383;BME280;7275;50.328;8.720;2023-06-19T12:30:25;99363.94;;;34.61;32.52
14383;BME280;7275;50.328;8.720;2023-06-19T12:32:53;99370.41;;;34.80;32.45
14383;BME280;7275;50.328;8.720;2023-06-19T12:35:22;99363.16;;;34.92;31.90
14383;BME280;7275;50.328;8.720;2023-06-19T12:37:49;99375.38;;;35.02;31.51
14383;BME280;7275;50.328;8.720;2023-06-19T12:40:17;99370.84;;;35.14;31.22
14383;BME280;7275;50.328;8.720;2023-06-19T12:42:44;99370.94;;;35.26;30.67
14383;BME280;7275;50.328;8.720;2023-06-19T12:45:12;99363.88;;;35.36;30.53
14383;BME280;7275;50.328;8.720;2023-06-19T12:47:40;99362.66;;;35.57;30.40
14383;BME280;7275;50.328;8.720;2023-06-19T12:50:08;99363.34;;;35.77;30.20
14383;BME280;7275;50.328;8.720;2023-06-19T12:52:39;99369.59;;;35.84;30.09
14383;BME280;7275;50.328;8.720;2023-06-19T12:55:07;99367.56;;;35.80;29.50
14383;BME280;7275;50.328;8.720;2023-06-19T12:57:35;99364.78;;;35.80;29.79
14383;BME280;7275;50.328;8.720;2023-06-19T13:00:03;99372.34;;;35.84;29.37
14383;BME280;7275;50.328;8.720;2023-06-19T13:02:32;99366.78;;;35.91;29.71
14383;BME280;7275;50.328;8.720;2023-06-19T13:05:00;99367.13;;;36.01;29.92
14383;BME280;7275;50.328;8.720;2023-06-19T13:07:28;99374.31;;;36.20;29.34
14383;BME280;7275;50.328;8.720;2023-06-19T13:09:57;99367.31;;;36.42;29.03
14383;BME280;7275;50.328;8.720;2023-06-19T13:12:25;99372.16;;;36.58;28.67
14383;BME280;7275;50.328;8.720;2023-06-19T13:14:53;99367.56;;;36.70;28.55
14383;BME280;7275;50.328;8.720;2023-06-19T13:17:20;99355.13;;;36.79;28.45
14383;BME280;7275;50.328;8.720;2023-06-19T13:19:48;99354.44;;;36.84;28.12